Earleville, Maryland
Current Conditions -  °F | °C
As of 10:59 AM on Thursday 30 Oct 2014 (Local Time) from KAPG Reporting Station
Clear Clear  
Wind Chill: 55°   Ceiling: Unl
Heat Index: 55°   Visibility: 7mi
Dew Point: 39°   Wind: 12mph
Humidity: 54%   Direction: 350°N
Pressure: 30.04"   Gusts: NA
Location:  39.42°N, 75.92°W
Report Text: KAPG 301459Z 35010KT 7SM SKC 13/04 A3004
Loading
Personal Weather Stations






























Interactive Weather Map
Tropical Storm Tracking
New forecast layout! Learn more

10-Day Weather Forecast

Advertisements
Track Severe Weather on mobile